Fernando Pessoa — CSKQ — position and weather

sailwx.info

Track history (hours):
 
Tides and Currents Weather Stations Pressure Air Temp Water Temp Dewpoint Dewpoint Depression Visibility Wind Speed Wind Dir Waves Ship Positions

Fernando Pessoa

Last reported at 2017-Dec-11 17:01 UTC. Time now 2017-Dec-14 17:19 UTC.
Position N 38°42' W 009°08'.

Length 49 m.

Type: Passenger vessel. MMSI: 263701470.

Date/timePositionNaut miles runAvg speedWind from/ knotsBaromVisibWave heightAir tempDewpointWater temp
2017-Dec-11 17:01N 38°42' W 009°08'4 8.3
2017-Dec-11 16:31N 38°39' W 009°05'4 7.8
2017-Dec-11 16:01N 38°42' W 009°08'3 7.0
2017-Dec-11 15:30N 38°39' W 009°05'0 0.9
2017-Dec-11 15:00N 38°39' W 009°05'0 0.0
2017-Dec-11 14:30N 38°39' W 009°05'0 0.0
2017-Dec-11 14:00N 38°39' W 009°05'0 0.0
2017-Dec-11 13:30N 38°39' W 009°05'0 0.0
2017-Dec-11 13:00N 38°39' W 009°05'0 0.0
2017-Dec-11 12:30N 38°39' W 009°05'0 0.0
2017-Dec-11 12:00N 38°39' W 009°05'0 0.0
2017-Dec-11 11:30N 38°39' W 009°05'3 7.0
2017-Dec-11 11:01N 38°42' W 009°08'3 6.0
2017-Dec-11 10:31N 38°39' W 009°06'3 5.6
2017-Dec-11 10:00N 38°41' W 009°08'3 5.9
2017-Dec-11 09:31N 38°39' W 009°05'1 2.8
2017-Dec-11 09:01N 38°40' W 009°07'1 1.9
2017-Dec-11 08:31N 38°39' W 009°06'3 6.9
2017-Dec-11 08:00N 38°42' W 009°08'4 8.4
2017-Dec-11 07:30N 38°39' W 009°05'4 8.4
2017-Dec-11 07:00N 38°42' W 009°08'4 8.4
2017-Dec-11 06:31N 38°39' W 009°05'3 6.8
2017-Dec-11 06:01N 38°42' W 009°08'3 6.8
2017-Dec-11 05:30N 38°39' W 009°05'0 0.0
2017-Dec-11 05:00N 38°39' W 009°05'0 0.0
2017-Dec-11 04:30N 38°39' W 009°05'0 0.0
2017-Dec-11 04:00N 38°39' W 009°05'0 0.0
2017-Dec-11 03:30N 38°39' W 009°05'0 0.0
2017-Dec-11 03:00N 38°39' W 009°05'0 0.0
2017-Dec-11 02:30N 38°39' W 009°05'0 0.0
2017-Dec-11 02:00N 38°39' W 009°05'0 0.0
2017-Dec-11 01:30N 38°39' W 009°05'0 0.0
2017-Dec-11 01:00N 38°39' W 009°05'0 0.0
2017-Dec-11 00:30N 38°39' W 009°05'0 0.0
2017-Dec-11 00:00N 38°39' W 009°05'0 0.0
2017-Dec-10 23:30N 38°39' W 009°05'0 0.0
2017-Dec-09 22:04N 38°39' W 009°05'0 0.0
2017-Dec-09 22:00N 38°39' W 009°05'3 7.0
2017-Dec-09 21:31N 38°41' W 009°08'3 5.0
2017-Dec-09 21:00N 38°39' W 009°06'1 2.0
2017-Dec-09 20:30N 38°39' W 009°05'4 7.2
2017-Dec-09 20:01N 38°42' W 009°08'3 5.3
2017-Dec-09 19:30N 38°39' W 009°06'3 5.2
2017-Dec-09 19:00N 38°42' W 009°08'3 5.3
2017-Dec-09 18:30N 38°39' W 009°06'3 5.4
2017-Dec-09 18:00N 38°42' W 009°08'3 5.6
2017-Dec-09 17:30N 38°39' W 009°06'3 5.8
2017-Dec-09 17:00N 38°42' W 009°08'3 5.7
2017-Dec-09 16:30N 38°39' W 009°06'3 5.5
2017-Dec-09 16:00N 38°41' W 009°08'3 5.6
2017-Dec-09 15:31N 38°39' W 009°06'3 6.4
2017-Dec-09 15:01N 38°42' W 009°08'3 6.6
2017-Dec-09 14:30N 38°39' W 009°06'3 6.7
2017-Dec-09 14:01N 38°42' W 009°08'3 6.7
2017-Dec-09 13:30N 38°39' W 009°05'1 1.2
2017-Dec-09 13:00N 38°39' W 009°05'0 0.0
2017-Dec-09 12:30N 38°39' W 009°05'0 0.0
2017-Dec-09 12:00N 38°39' W 009°05'0 0.0
2017-Dec-09 11:30N 38°39' W 009°05'0 0.0
2017-Dec-09 11:00N 38°39' W 009°05'3 7.0
2017-Dec-09 10:31N 38°42' W 009°08'3 5.6
2017-Dec-09 10:01N 38°39' W 009°06'3 5.7
2017-Dec-09 09:30N 38°42' W 009°08'3 5.5
2017-Dec-09 09:00N 38°39' W 009°06'3 5.5
2017-Dec-09 08:30N 38°42' W 009°08'3 5.1
2017-Dec-09 08:01N 38°40' W 009°06'1 1.7
2017-Dec-09 07:31N 38°39' W 009°05'2 4.0
2017-Dec-09 07:01N 38°40' W 009°07'1 2.2
2017-Dec-09 06:31N 38°40' W 009°06'2 3.5
2017-Dec-09 06:00N 38°41' W 009°08'3 5.7
2017-Dec-09 05:30N 38°39' W 009°05'0 0.0
2017-Dec-09 05:00N 38°39' W 009°05'0 0.0
2017-Dec-09 04:30N 38°39' W 009°05'0 0.0
2017-Dec-09 04:00N 38°39' W 009°05'0 0.0
2017-Dec-09 03:30N 38°39' W 009°05'0 0.0
2017-Dec-09 03:00N 38°39' W 009°05'0 0.0
2017-Dec-09 02:30N 38°39' W 009°05'0 0.0
2017-Dec-09 02:00N 38°39' W 009°05'0 0.0
2017-Dec-09 01:30N 38°39' W 009°05'0 0.0
2017-Dec-09 01:00N 38°39' W 009°05'0 0.0
2017-Dec-09 00:30N 38°39' W 009°05'0 0.0
2017-Dec-09 00:00N 38°39' W 009°05'0 0.0
2017-Dec-08 21:54N 38°39' W 009°05'4 8.9
2017-Dec-08 21:30N 38°42' W 009°08'3 5.4
2017-Dec-08 21:00N 38°39' W 009°06'1 1.9
2017-Dec-08 20:30N 38°39' W 009°05'4 7.1
2017-Dec-08 20:01N 38°42' W 009°08'3 5.5
2017-Dec-08 19:31N 38°39' W 009°06'3 6.0
2017-Dec-08 19:01N 38°42' W 009°08'3 6.4
2017-Dec-08 18:30N 38°39' W 009°06'3 6.0
2017-Dec-08 18:01N 38°42' W 009°08'3 5.5
2017-Dec-08 17:30N 38°39' W 009°06'3 5.4
2017-Dec-08 17:00N 38°42' W 009°08'3 5.6
2017-Dec-08 16:30N 38°39' W 009°06'3 5.9
2017-Dec-08 16:00N 38°42' W 009°08'3 6.2
2017-Dec-08 15:30N 38°39' W 009°06'3 6.6
2017-Dec-08 15:01N 38°42' W 009°08'3 6.7
2017-Dec-08 14:30N 38°39' W 009°05'3 6.9
2017-Dec-08 14:00N 38°42' W 009°08'4 7.4
2017-Dec-08 13:30N 38°39' W 009°05'0 0.6
2017-Dec-08 13:00N 38°39' W 009°05'0 0.0
2017-Dec-08 12:30N 38°39' W 009°05'0 0.0
2017-Dec-08 12:00N 38°39' W 009°05'0 0.0
2017-Dec-08 11:30N 38°39' W 009°05'0 0.0
2017-Dec-08 11:00N 38°39' W 009°05'0 0.0
2017-Dec-08 10:30N 38°39' W 009°05'0 0.0
2017-Dec-08 10:00N 38°39' W 009°05'0 0.0
2017-Dec-08 09:30N 38°39' W 009°05'0 0.0
2017-Dec-08 09:00N 38°39' W 009°05'0 0.0
2017-Dec-08 08:30N 38°39' W 009°05'0 0.0
2017-Dec-08 08:00N 38°39' W 009°05'1 1.9
2017-Dec-08 07:30N 38°39' W 009°06'2 3.3
2017-Dec-08 07:00N 38°40' W 009°08'1 2.6
2017-Dec-08 06:30N 38°40' W 009°06'2 4.2
2017-Dec-08 06:01N 38°41' W 009°08'3 6.4
2017-Dec-08 05:31N 38°39' W 009°05'0 0.0
2017-Dec-08 05:01N 38°39' W 009°05'0 0.0
2017-Dec-08 04:31N 38°39' W 009°05'0 0.0
2017-Dec-08 04:00N 38°39' W 009°05'0 0.0
2017-Dec-08 03:31N 38°39' W 009°05'0 0.0
2017-Dec-08 03:00N 38°39' W 009°05'0 0.0
2017-Dec-08 02:31N 38°39' W 009°05'0 0.0
2017-Dec-08 02:01N 38°39' W 009°05'0 0.0
2017-Dec-08 01:31N 38°39' W 009°05'0 0.0
2017-Dec-08 01:01N 38°39' W 009°05'0 0.0
2017-Dec-08 00:31N 38°39' W 009°05'0 0.0
2017-Dec-08 00:00N 38°39' W 009°05'4 8.4
2017-Dec-07 23:30N 38°42' W 009°08'4 8.3
2017-Dec-07 23:00N 38°39' W 009°05'4 7.3
2017-Dec-07 22:30N 38°42' W 009°08'4 7.2
2017-Dec-07 22:00N 38°39' W 009°05'4 7.1
2017-Dec-07 21:31N 38°42' W 009°08'4 7.0
2017-Dec-07 21:01N 38°39' W 009°05'0 0.0
2017-Dec-07 20:30N 38°39' W 009°05'4 8.3
2017-Dec-07 20:00N 38°42' W 009°08'4 8.4
2017-Dec-07 19:31N 38°39' W 009°05'4 8.2
2017-Dec-07 19:00N 38°42' W 009°08'4 8.5
2017-Dec-07 18:30N 38°39' W 009°05'4 7.9
2017-Dec-07 18:00N 38°42' W 009°08'2 4.8
2017-Dec-07 17:30N 38°40' W 009°07'0 0.1
2017-Dec-07 17:00N 38°40' W 009°07'2 3.6
2017-Dec-07 16:29N 38°39' W 009°05'0 0.0
2017-Dec-07 10:45N 38°39' W 009°05'0 0.0
2017-Dec-07 10:30N 38°39' W 009°05'0 0.0
2017-Dec-07 10:00N 38°39' W 009°05'0 0.2
2017-Dec-07 09:30N 38°39' W 009°05'3 6.6
2017-Dec-07 09:00N 38°42' W 009°08'3 6.9
2017-Dec-07 08:30N 38°39' W 009°05'4 8.4
2017-Dec-07 08:01N 38°42' W 009°08'4 8.4
2017-Dec-07 07:30N 38°39' W 009°05'4 7.2
2017-Dec-07 07:01N 38°42' W 009°08'4 7.0
2017-Dec-07 06:30N 38°39' W 009°05'0 0.0
2017-Dec-06 21:17N 38°39' W 009°05'2 7.1
2017-Dec-06 21:00N 38°40' W 009°07'  
2017-Dec-04 10:30N 38°39' W 009°06'3 5.9
2017-Dec-04 10:00N 38°42' W 009°08'3 6.2
2017-Dec-04 09:30N 38°39' W 009°05'2 3.3
2017-Dec-04 09:01N 38°40' W 009°07'1 2.2
2017-Dec-04 08:30N 38°40' W 009°06'3 6.5
2017-Dec-04 08:00N 38°42' W 009°08'4 8.4
2017-Dec-04 07:30N 38°39' W 009°05'4 8.0
2017-Dec-04 06:59N 38°42' W 009°08'4 8.5
2017-Dec-04 06:30N 38°39' W 009°05'3 6.4
2017-Dec-04 06:00N 38°41' W 009°08'3 0.1
2017-Dec-02 21:43N 38°39' W 009°05'314.0
2017-Dec-02 21:30N 38°41' W 009°08'3 5.8
2017-Dec-02 20:56N 38°39' W 009°05'0 0.0
2017-Dec-02 20:31N 38°39' W 009°05'3 6.2
2017-Dec-02 20:00N 38°41' W 009°08'3 5.4
2017-Dec-02 19:28N 38°39' W 009°05'3 7.3
2017-Dec-02 19:01N 38°42' W 009°08'3 5.5
2017-Dec-02 18:29N 38°39' W 009°06'3 6.0
2017-Dec-02 18:01N 38°42' W 009°08'3 5.6
2017-Dec-02 17:29N 38°39' W 009°06'3 6.5
2017-Dec-02 17:01N 38°42' W 009°08'4 6.4
2017-Dec-02 16:27N 38°39' W 009°05'4 8.1
2017-Dec-02 16:00N 38°42' W 009°08'4 6.6
2017-Dec-02 15:28N 38°39' W 009°05'4 8.2
2017-Dec-02 15:01N 38°42' W 009°08'3 6.2
2017-Dec-02 14:30N 38°39' W 009°06'3 6.2
2017-Dec-02 14:01N 38°42' W 009°08'3 6.7
2017-Dec-02 13:30N 38°39' W 009°05'0 0.5
2017-Dec-02 12:57N 38°39' W 009°05'0 0.0
2017-Dec-02 12:30N 38°39' W 009°05'0 0.0
2017-Dec-02 11:56N 38°39' W 009°05'0 0.0
2017-Dec-02 11:31N 38°39' W 009°05'0 0.0
2017-Dec-02 11:00N 38°39' W 009°05'4 7.1
2017-Dec-02 10:30N 38°42' W 009°08'3 5.9
2017-Dec-02 10:00N 38°39' W 009°06'3 6.2
2017-Dec-02 09:31N 38°42' W 009°08'3 6.2
2017-Dec-02 09:00N 38°39' W 009°06'3 6.0
2017-Dec-02 08:30N 38°42' W 009°08'3 5.5
2017-Dec-02 08:00N 38°39' W 009°06'0 0.3
2017-Dec-02 07:29N 38°40' W 009°06'1 3.2
2017-Dec-02 07:01N 38°41' W 009°08'1 2.3
2017-Dec-02 06:30N 38°40' W 009°06'2 4.0
2017-Dec-02 06:00N 38°41' W 009°08'2 0.2
2017-Dec-01 21:39N 38°40' W 009°07'213.5
2017-Dec-01 21:30N 38°41' W 009°08'3 6.0
2017-Dec-01 20:58N 38°39' W 009°05'0 0.4
2017-Dec-01 20:30N 38°39' W 009°05'3 6.6
2017-Dec-01 20:00N 38°41' W 009°08'3 5.8
2017-Dec-01 19:28N 38°39' W 009°05'3 6.9
2017-Dec-01 19:01N 38°41' W 009°08'3 5.8
2017-Dec-01 18:28N 38°39' W 009°05'3 7.1
2017-Dec-01 18:00N 38°41' W 009°08'3 5.6
2017-Dec-01 17:28N 38°39' W 009°05'  
Track history (hours):
 
Tides and Currents Weather Stations Pressure Air Temp Water Temp Dewpoint Dewpoint Depression Visibility Wind Speed Wind Dir Waves Ship Positions

Fernando Pessoa

Last reported at 2017-Dec-11 17:01 UTC. Time now 2017-Dec-14 17:19 UTC.
Position N 38°42' W 009°08'.

Length 49 m.

Type: Passenger vessel. MMSI: 263701470.

Date/timePositionNaut miles runAvg speedWind from/ knotsBaromVisibWave heightAir tempDewpointWater temp
2017-Dec-11 17:01N 38°42' W 009°08'4 8.3
2017-Dec-11 16:31N 38°39' W 009°05'4 7.8
2017-Dec-11 16:01N 38°42' W 009°08'3 7.0
2017-Dec-11 15:30N 38°39' W 009°05'0 0.9
2017-Dec-11 15:00N 38°39' W 009°05'0 0.0
2017-Dec-11 14:30N 38°39' W 009°05'0 0.0
2017-Dec-11 14:00N 38°39' W 009°05'0 0.0
2017-Dec-11 13:30N 38°39' W 009°05'0 0.0
2017-Dec-11 13:00N 38°39' W 009°05'0 0.0
2017-Dec-11 12:30N 38°39' W 009°05'0 0.0
2017-Dec-11 12:00N 38°39' W 009°05'0 0.0
2017-Dec-11 11:30N 38°39' W 009°05'3 7.0
2017-Dec-11 11:01N 38°42' W 009°08'3 6.0
2017-Dec-11 10:31N 38°39' W 009°06'3 5.6
2017-Dec-11 10:00N 38°41' W 009°08'3 5.9
2017-Dec-11 09:31N 38°39' W 009°05'1 2.8
2017-Dec-11 09:01N 38°40' W 009°07'1 1.9
2017-Dec-11 08:31N 38°39' W 009°06'3 6.9
2017-Dec-11 08:00N 38°42' W 009°08'4 8.4
2017-Dec-11 07:30N 38°39' W 009°05'4 8.4
2017-Dec-11 07:00N 38°42' W 009°08'4 8.4
2017-Dec-11 06:31N 38°39' W 009°05'3 6.8
2017-Dec-11 06:01N 38°42' W 009°08'3 6.8
2017-Dec-11 05:30N 38°39' W 009°05'0 0.0
2017-Dec-11 05:00N 38°39' W 009°05'0 0.0
2017-Dec-11 04:30N 38°39' W 009°05'0 0.0
2017-Dec-11 04:00N 38°39' W 009°05'0 0.0
2017-Dec-11 03:30N 38°39' W 009°05'0 0.0
2017-Dec-11 03:00N 38°39' W 009°05'0 0.0
2017-Dec-11 02:30N 38°39' W 009°05'0 0.0
2017-Dec-11 02:00N 38°39' W 009°05'0 0.0
2017-Dec-11 01:30N 38°39' W 009°05'0 0.0
2017-Dec-11 01:00N 38°39' W 009°05'0 0.0
2017-Dec-11 00:30N 38°39' W 009°05'0 0.0
2017-Dec-11 00:00N 38°39' W 009°05'0 0.0
2017-Dec-10 23:30N 38°39' W 009°05'0 0.0
2017-Dec-09 22:04N 38°39' W 009°05'0 0.0
2017-Dec-09 22:00N 38°39' W 009°05'3 7.0
2017-Dec-09 21:31N 38°41' W 009°08'3 5.0
2017-Dec-09 21:00N 38°39' W 009°06'1 2.0
2017-Dec-09 20:30N 38°39' W 009°05'4 7.2
2017-Dec-09 20:01N 38°42' W 009°08'3 5.3
2017-Dec-09 19:30N 38°39' W 009°06'3 5.2
2017-Dec-09 19:00N 38°42' W 009°08'3 5.3
2017-Dec-09 18:30N 38°39' W 009°06'3 5.4
2017-Dec-09 18:00N 38°42' W 009°08'3 5.6
2017-Dec-09 17:30N 38°39' W 009°06'3 5.8
2017-Dec-09 17:00N 38°42' W 009°08'3 5.7
2017-Dec-09 16:30N 38°39' W 009°06'3 5.5
2017-Dec-09 16:00N 38°41' W 009°08'3 5.6
2017-Dec-09 15:31N 38°39' W 009°06'3 6.4
2017-Dec-09 15:01N 38°42' W 009°08'3 6.6
2017-Dec-09 14:30N 38°39' W 009°06'3 6.7
2017-Dec-09 14:01N 38°42' W 009°08'3 6.7
2017-Dec-09 13:30N 38°39' W 009°05'1 1.2
2017-Dec-09 13:00N 38°39' W 009°05'0 0.0
2017-Dec-09 12:30N 38°39' W 009°05'0 0.0
2017-Dec-09 12:00N 38°39' W 009°05'0 0.0
2017-Dec-09 11:30N 38°39' W 009°05'0 0.0
2017-Dec-09 11:00N 38°39' W 009°05'3 7.0
2017-Dec-09 10:31N 38°42' W 009°08'3 5.6
2017-Dec-09 10:01N 38°39' W 009°06'3 5.7
2017-Dec-09 09:30N 38°42' W 009°08'3 5.5
2017-Dec-09 09:00N 38°39' W 009°06'3 5.5
2017-Dec-09 08:30N 38°42' W 009°08'3 5.1
2017-Dec-09 08:01N 38°40' W 009°06'1 1.7
2017-Dec-09 07:31N 38°39' W 009°05'2 4.0
2017-Dec-09 07:01N 38°40' W 009°07'1 2.2
2017-Dec-09 06:31N 38°40' W 009°06'2 3.5
2017-Dec-09 06:00N 38°41' W 009°08'3 5.7
2017-Dec-09 05:30N 38°39' W 009°05'0 0.0
2017-Dec-09 05:00N 38°39' W 009°05'0 0.0
2017-Dec-09 04:30N 38°39' W 009°05'0 0.0
2017-Dec-09 04:00N 38°39' W 009°05'0 0.0
2017-Dec-09 03:30N 38°39' W 009°05'0 0.0
2017-Dec-09 03:00N 38°39' W 009°05'0 0.0
2017-Dec-09 02:30N 38°39' W 009°05'0 0.0
2017-Dec-09 02:00N 38°39' W 009°05'0 0.0
2017-Dec-09 01:30N 38°39' W 009°05'0 0.0
2017-Dec-09 01:00N 38°39' W 009°05'0 0.0
2017-Dec-09 00:30N 38°39' W 009°05'0 0.0
2017-Dec-09 00:00N 38°39' W 009°05'0 0.0
2017-Dec-08 21:54N 38°39' W 009°05'4 8.9
2017-Dec-08 21:30N 38°42' W 009°08'3 5.4
2017-Dec-08 21:00N 38°39' W 009°06'1 1.9
2017-Dec-08 20:30N 38°39' W 009°05'4 7.1
2017-Dec-08 20:01N 38°42' W 009°08'3 5.5
2017-Dec-08 19:31N 38°39' W 009°06'3 6.0
2017-Dec-08 19:01N 38°42' W 009°08'3 6.4
2017-Dec-08 18:30N 38°39' W 009°06'3 6.0
2017-Dec-08 18:01N 38°42' W 009°08'3 5.5
2017-Dec-08 17:30N 38°39' W 009°06'3 5.4
2017-Dec-08 17:00N 38°42' W 009°08'3 5.6
2017-Dec-08 16:30N 38°39' W 009°06'3 5.9
2017-Dec-08 16:00N 38°42' W 009°08'3 6.2
2017-Dec-08 15:30N 38°39' W 009°06'3 6.6
2017-Dec-08 15:01N 38°42' W 009°08'3 6.7
2017-Dec-08 14:30N 38°39' W 009°05'3 6.9
2017-Dec-08 14:00N 38°42' W 009°08'4 7.4
2017-Dec-08 13:30N 38°39' W 009°05'0 0.6
2017-Dec-08 13:00N 38°39' W 009°05'0 0.0
2017-Dec-08 12:30N 38°39' W 009°05'0 0.0
2017-Dec-08 12:00N 38°39' W 009°05'0 0.0
2017-Dec-08 11:30N 38°39' W 009°05'0 0.0
2017-Dec-08 11:00N 38°39' W 009°05'0 0.0
2017-Dec-08 10:30N 38°39' W 009°05'0 0.0
2017-Dec-08 10:00N 38°39' W 009°05'0 0.0
2017-Dec-08 09:30N 38°39' W 009°05'0 0.0
2017-Dec-08 09:00N 38°39' W 009°05'0 0.0
2017-Dec-08 08:30N 38°39' W 009°05'0 0.0
2017-Dec-08 08:00N 38°39' W 009°05'1 1.9
2017-Dec-08 07:30N 38°39' W 009°06'2 3.3
2017-Dec-08 07:00N 38°40' W 009°08'1 2.6
2017-Dec-08 06:30N 38°40' W 009°06'2 4.2
2017-Dec-08 06:01N 38°41' W 009°08'3 6.4
2017-Dec-08 05:31N 38°39' W 009°05'0 0.0
2017-Dec-08 05:01N 38°39' W 009°05'0 0.0
2017-Dec-08 04:31N 38°39' W 009°05'0 0.0
2017-Dec-08 04:00N 38°39' W 009°05'0 0.0
2017-Dec-08 03:31N 38°39' W 009°05'0 0.0
2017-Dec-08 03:00N 38°39' W 009°05'0 0.0
2017-Dec-08 02:31N 38°39' W 009°05'0 0.0
2017-Dec-08 02:01N 38°39' W 009°05'0 0.0
2017-Dec-08 01:31N 38°39' W 009°05'0 0.0
2017-Dec-08 01:01N 38°39' W 009°05'0 0.0
2017-Dec-08 00:31N 38°39' W 009°05'0 0.0
2017-Dec-08 00:00N 38°39' W 009°05'4 8.4
2017-Dec-07 23:30N 38°42' W 009°08'4 8.3
2017-Dec-07 23:00N 38°39' W 009°05'4 7.3
2017-Dec-07 22:30N 38°42' W 009°08'4 7.2
2017-Dec-07 22:00N 38°39' W 009°05'4 7.1
2017-Dec-07 21:31N 38°42' W 009°08'4 7.0
2017-Dec-07 21:01N 38°39' W 009°05'0 0.0
2017-Dec-07 20:30N 38°39' W 009°05'4 8.3
2017-Dec-07 20:00N 38°42' W 009°08'4 8.4
2017-Dec-07 19:31N 38°39' W 009°05'4 8.2
2017-Dec-07 19:00N 38°42' W 009°08'4 8.5
2017-Dec-07 18:30N 38°39' W 009°05'4 7.9
2017-Dec-07 18:00N 38°42' W 009°08'2 4.8
2017-Dec-07 17:30N 38°40' W 009°07'0 0.1
2017-Dec-07 17:00N 38°40' W 009°07'2 3.6
2017-Dec-07 16:29N 38°39' W 009°05'0 0.0
2017-Dec-07 10:45N 38°39' W 009°05'0 0.0
2017-Dec-07 10:30N 38°39' W 009°05'0 0.0
2017-Dec-07 10:00N 38°39' W 009°05'0 0.2
2017-Dec-07 09:30N 38°39' W 009°05'3 6.6
2017-Dec-07 09:00N 38°42' W 009°08'3 6.9
2017-Dec-07 08:30N 38°39' W 009°05'4 8.4
2017-Dec-07 08:01N 38°42' W 009°08'4 8.4
2017-Dec-07 07:30N 38°39' W 009°05'4 7.2
2017-Dec-07 07:01N 38°42' W 009°08'4 7.0
2017-Dec-07 06:30N 38°39' W 009°05'0 0.0
2017-Dec-06 21:17N 38°39' W 009°05'2 7.1
2017-Dec-06 21:00N 38°40' W 009°07'  
2017-Dec-04 10:30N 38°39' W 009°06'3 5.9
2017-Dec-04 10:00N 38°42' W 009°08'3 6.2
2017-Dec-04 09:30N 38°39' W 009°05'2 3.3
2017-Dec-04 09:01N 38°40' W 009°07'1 2.2
2017-Dec-04 08:30N 38°40' W 009°06'3 6.5
2017-Dec-04 08:00N 38°42' W 009°08'4 8.4
2017-Dec-04 07:30N 38°39' W 009°05'4 8.0
2017-Dec-04 06:59N 38°42' W 009°08'4 8.5
2017-Dec-04 06:30N 38°39' W 009°05'3 6.4
2017-Dec-04 06:00N 38°41' W 009°08'3 0.1
2017-Dec-02 21:43N 38°39' W 009°05'314.0
2017-Dec-02 21:30N 38°41' W 009°08'3 5.8
2017-Dec-02 20:56N 38°39' W 009°05'0 0.0
2017-Dec-02 20:31N 38°39' W 009°05'3 6.2
2017-Dec-02 20:00N 38°41' W 009°08'3 5.4
2017-Dec-02 19:28N 38°39' W 009°05'3 7.3
2017-Dec-02 19:01N 38°42' W 009°08'3 5.5
2017-Dec-02 18:29N 38°39' W 009°06'3 6.0
2017-Dec-02 18:01N 38°42' W 009°08'3 5.6
2017-Dec-02 17:29N 38°39' W 009°06'3 6.5
2017-Dec-02 17:01N 38°42' W 009°08'4 6.4
2017-Dec-02 16:27N 38°39' W 009°05'4 8.1
2017-Dec-02 16:00N 38°42' W 009°08'4 6.6
2017-Dec-02 15:28N 38°39' W 009°05'4 8.2
2017-Dec-02 15:01N 38°42' W 009°08'3 6.2
2017-Dec-02 14:30N 38°39' W 009°06'3 6.2
2017-Dec-02 14:01N 38°42' W 009°08'3 6.7
2017-Dec-02 13:30N 38°39' W 009°05'0 0.5
2017-Dec-02 12:57N 38°39' W 009°05'0 0.0
2017-Dec-02 12:30N 38°39' W 009°05'0 0.0
2017-Dec-02 11:56N 38°39' W 009°05'0 0.0
2017-Dec-02 11:31N 38°39' W 009°05'0 0.0
2017-Dec-02 11:00N 38°39' W 009°05'4 7.1
2017-Dec-02 10:30N 38°42' W 009°08'3 5.9
2017-Dec-02 10:00N 38°39' W 009°06'3 6.2
2017-Dec-02 09:31N 38°42' W 009°08'3 6.2
2017-Dec-02 09:00N 38°39' W 009°06'3 6.0
2017-Dec-02 08:30N 38°42' W 009°08'3 5.5
2017-Dec-02 08:00N 38°39' W 009°06'0 0.3
2017-Dec-02 07:29N 38°40' W 009°06'1 3.2
2017-Dec-02 07:01N 38°41' W 009°08'1 2.3
2017-Dec-02 06:30N 38°40' W 009°06'2 4.0
2017-Dec-02 06:00N 38°41' W 009°08'2 0.2
2017-Dec-01 21:39N 38°40' W 009°07'213.5
2017-Dec-01 21:30N 38°41' W 009°08'3 6.0
2017-Dec-01 20:58N 38°39' W 009°05'0 0.4
2017-Dec-01 20:30N 38°39' W 009°05'3 6.6
2017-Dec-01 20:00N 38°41' W 009°08'3 5.8
2017-Dec-01 19:28N 38°39' W 009°05'3 6.9
2017-Dec-01 19:01N 38°41' W 009°08'3 5.8
2017-Dec-01 18:28N 38°39' W 009°05'3 7.1
2017-Dec-01 18:00N 38°41' W 009°08'3 5.6
2017-Dec-01 17:28N 38°39' W 009°05'  

Dump ship's entire track history